sensor_id;sensor_type;location;lat;lon;timestamp;temperature;humidity
15983;DHT22;14442;50.196;8.096;2022-12-05T00:02:15;22.10;42.80
15983;DHT22;14442;50.196;8.096;2022-12-05T00:04:41;22.10;42.70
15983;DHT22;14442;50.196;8.096;2022-12-05T00:07:08;22.00;42.60
15983;DHT22;14442;50.196;8.096;2022-12-05T00:09:35;22.00;42.60
15983;DHT22;14442;50.196;8.096;2022-12-05T00:12:02;22.00;42.50
15983;DHT22;14442;50.196;8.096;2022-12-05T00:14:29;22.00;42.50
15983;DHT22;14442;50.196;8.096;2022-12-05T00:16:55;22.00;42.40
15983;DHT22;14442;50.196;8.096;2022-12-05T00:19:23;22.00;42.30
15983;DHT22;14442;50.196;8.096;2022-12-05T00:21:50;22.00;42.20
15983;DHT22;14442;50.196;8.096;2022-12-05T00:24:17;22.00;42.10
15983;DHT22;14442;50.196;8.096;2022-12-05T00:26:44;22.10;42.20
15983;DHT22;14442;50.196;8.096;2022-12-05T00:29:11;22.10;42.10
15983;DHT22;14442;50.196;8.096;2022-12-05T00:31:38;22.10;42.00
15983;DHT22;14442;50.196;8.096;2022-12-05T00:34:04;22.20;42.00
15983;DHT22;14442;50.196;8.096;2022-12-05T00:36:33;22.20;42.00
15983;DHT22;14442;50.196;8.096;2022-12-05T00:39:03;22.20;41.90
15983;DHT22;14442;50.196;8.096;2022-12-05T00:41:30;22.30;41.90
15983;DHT22;14442;50.196;8.096;2022-12-05T00:43:58;22.30;41.80
15983;DHT22;14442;50.196;8.096;2022-12-05T00:46:27;22.30;41.70
15983;DHT22;14442;50.196;8.096;2022-12-05T00:48:55;22.30;41.70
15983;DHT22;14442;50.196;8.096;2022-12-05T00:51:23;22.40;41.70
15983;DHT22;14442;50.196;8.096;2022-12-05T00:53:53;22.40;41.70
15983;DHT22;14442;50.196;8.096;2022-12-05T00:56:21;22.40;41.60
15983;DHT22;14442;50.196;8.096;2022-12-05T00:58:49;22.40;41.50
15983;DHT22;14442;50.196;8.096;2022-12-05T01:01:20;22.50;41.60
15983;DHT22;14442;50.196;8.096;2022-12-05T01:03:47;22.50;41.50
15983;DHT22;14442;50.196;8.096;2022-12-05T01:06:15;22.50;41.40
15983;DHT22;14442;50.196;8.096;2022-12-05T01:08:42;22.50;41.40
15983;DHT22;14442;50.196;8.096;2022-12-05T01:11:13;22.50;41.40
15983;DHT22;14442;50.196;8.096;2022-12-05T01:13:41;22.60;41.50
15983;DHT22;14442;50.196;8.096;2022-12-05T01:16:13;22.50;41.40
15983;DHT22;14442;50.196;8.096;2022-12-05T01:18:40;22.50;41.40
15983;DHT22;14442;50.196;8.096;2022-12-05T01:21:07;22.60;41.50
15983;DHT22;14442;50.196;8.096;2022-12-05T01:23:34;22.60;41.50
15983;DHT22;14442;50.196;8.096;2022-12-05T01:26:05;22.50;41.40
15983;DHT22;14442;50.196;8.096;2022-12-05T01:28:34;22.60;41.40
15983;DHT22;14442;50.196;8.096;2022-12-05T01:31:04;22.60;41.40
15983;DHT22;14442;50.196;8.096;2022-12-05T01:33:32;22.60;41.40
15983;DHT22;14442;50.196;8.096;2022-12-05T01:35:58;22.60;41.50
15983;DHT22;14442;50.196;8.096;2022-12-05T01:38:25;22.60;41.40
15983;DHT22;14442;50.196;8.096;2022-12-05T01:40:59;22.60;41.40
15983;DHT22;14442;50.196;8.096;2022-12-05T01:43:25;22.60;41.40
15983;DHT22;14442;50.196;8.096;2022-12-05T01:45:53;22.60;41.50
15983;DHT22;14442;50.196;8.096;2022-12-05T01:48:22;22.60;42.10
15983;DHT22;14442;50.196;8.096;2022-12-05T01:50:51;22.60;41.40
15983;DHT22;14442;50.196;8.096;2022-12-05T01:53:18;22.60;41.40
15983;DHT22;14442;50.196;8.096;2022-12-05T01:55:46;22.60;41.40
15983;DHT22;14442;50.196;8.096;2022-12-05T01:58:14;22.60;41.40
15983;DHT22;14442;50.196;8.096;2022-12-05T02:00:41;22.60;41.40
15983;DHT22;14442;50.196;8.096;2022-12-05T02:03:14;22.60;41.40
15983;DHT22;14442;50.196;8.096;2022-12-05T02:05:43;22.60;41.50
15983;DHT22;14442;50.196;8.096;2022-12-05T02:08:11;22.60;41.50
15983;DHT22;14442;50.196;8.096;2022-12-05T02:10:40;22.50;41.40
15983;DHT22;14442;50.196;8.096;2022-12-05T02:13:20;22.60;41.50
15983;DHT22;14442;50.196;8.096;2022-12-05T02:15:54;22.50;41.40
15983;DHT22;14442;50.196;8.096;2022-12-05T02:18:38;22.60;41.50
15983;DHT22;14442;50.196;8.096;2022-12-05T02:27:16;22.50;41.40
15983;DHT22;14442;50.196;8.096;2022-12-05T02:30:07;22.50;41.40
15983;DHT22;14442;50.196;8.096;2022-12-05T02:32:46;22.50;41.50
15983;DHT22;14442;50.196;8.096;2022-12-05T02:35:24;22.50;41.50
15983;DHT22;14442;50.196;8.096;2022-12-05T02:38:00;22.50;41.50
15983;DHT22;14442;50.196;8.096;2022-12-05T02:40:32;22.50;41.60
15983;DHT22;14442;50.196;8.096;2022-12-05T02:43:07;22.40;41.40
15983;DHT22;14442;50.196;8.096;2022-12-05T02:45:39;22.50;41.60
15983;DHT22;14442;50.196;8.096;2022-12-05T02:48:08;22.40;41.40
15983;DHT22;14442;50.196;8.096;2022-12-05T02:50:37;22.40;41.50
15983;DHT22;14442;50.196;8.096;2022-12-05T02:53:08;22.40;41.50
15983;DHT22;14442;50.196;8.096;2022-12-05T02:55:37;22.40;41.50
15983;DHT22;14442;50.196;8.096;2022-12-05T02:58:10;22.40;41.50
15983;DHT22;14442;50.196;8.096;2022-12-05T03:00:43;22.40;41.50
15983;DHT22;14442;50.196;8.096;2022-12-05T03:03:14;22.40;41.60
15983;DHT22;14442;50.196;8.096;2022-12-05T03:05:47;22.40;41.50
15983;DHT22;14442;50.196;8.096;2022-12-05T03:08:21;22.40;41.60
15983;DHT22;14442;50.196;8.096;2022-12-05T03:10:49;22.30;41.50
15983;DHT22;14442;50.196;8.096;2022-12-05T03:13:20;22.30;41.50
15983;DHT22;14442;50.196;8.096;2022-12-05T03:15:51;22.30;41.50
15983;DHT22;14442;50.196;8.096;2022-12-05T03:18:21;22.30;41.50
15983;DHT22;14442;50.196;8.096;2022-12-05T03:20:58;22.30;41.60
15983;DHT22;14442;50.196;8.096;2022-12-05T03:23:28;22.30;41.60
15983;DHT22;14442;50.196;8.096;2022-12-05T03:26:04;22.30;41.60
15983;DHT22;14442;50.196;8.096;2022-12-05T03:28:42;22.30;41.60
15983;DHT22;14442;50.196;8.096;2022-12-05T03:31:24;22.20;41.50
15983;DHT22;14442;50.196;8.096;2022-12-05T03:33:56;22.20;41.60
15983;DHT22;14442;50.196;8.096;2022-12-05T03:36:29;22.20;41.50
15983;DHT22;14442;50.196;8.096;2022-12-05T03:39:00;22.20;41.60
15983;DHT22;14442;50.196;8.096;2022-12-05T03:41:33;22.10;41.50
15983;DHT22;14442;50.196;8.096;2022-12-05T03:44:07;22.20;41.70
15983;DHT22;14442;50.196;8.096;2022-12-05T03:46:39;22.10;41.50
15983;DHT22;14442;50.196;8.096;2022-12-05T03:49:11;22.10;41.50
15983;DHT22;14442;50.196;8.096;2022-12-05T03:51:42;22.10;41.60
15983;DHT22;14442;50.196;8.096;2022-12-05T03:54:15;22.10;41.60
15983;DHT22;14442;50.196;8.096;2022-12-05T03:56:46;22.10;41.60
15983;DHT22;14442;50.196;8.096;2022-12-05T03:59:17;22.10;41.60
15983;DHT22;14442;50.196;8.096;2022-12-05T04:01:48;22.00;41.50
15983;DHT22;14442;50.196;8.096;2022-12-05T04:04:20;22.00;41.50
15983;DHT22;14442;50.196;8.096;2022-12-05T04:06:49;22.00;41.60
15983;DHT22;14442;50.196;8.096;2022-12-05T04:09:20;22.00;41.60
15983;DHT22;14442;50.196;8.096;2022-12-05T04:11:54;22.00;41.60
15983;DHT22;14442;50.196;8.096;2022-12-05T04:14:27;21.90;41.50
15983;DHT22;14442;50.196;8.096;2022-12-05T04:16:59;22.00;41.70
15983;DHT22;14442;50.196;8.096;2022-12-05T04:19:32;22.00;41.60
15983;DHT22;14442;50.196;8.096;2022-12-05T04:22:16;22.00;41.60
15983;DHT22;14442;50.196;8.096;2022-12-05T04:24:43;22.00;41.60
15983;DHT22;14442;50.196;8.096;2022-12-05T04:27:33;21.90;41.60
15983;DHT22;14442;50.196;8.096;2022-12-05T04:30:03;21.90;41.60
15983;DHT22;14442;50.196;8.096;2022-12-05T04:32:37;21.90;41.60
15983;DHT22;14442;50.196;8.096;2022-12-05T04:35:10;21.90;41.60
15983;DHT22;14442;50.196;8.096;2022-12-05T04:37:41;21.90;41.60
15983;DHT22;14442;50.196;8.096;2022-12-05T04:40:16;21.90;41.70
15983;DHT22;14442;50.196;8.096;2022-12-05T04:42:46;21.80;41.50
15983;DHT22;14442;50.196;8.096;2022-12-05T04:45:17;21.80;41.60
15983;DHT22;14442;50.196;8.096;2022-12-05T04:47:48;21.80;41.70
15983;DHT22;14442;50.196;8.096;2022-12-05T04:50:17;21.80;41.70
15983;DHT22;14442;50.196;8.096;2022-12-05T04:52:47;21.80;41.70
15983;DHT22;14442;50.196;8.096;2022-12-05T04:55:19;21.80;41.80
15983;DHT22;14442;50.196;8.096;2022-12-05T04:57:55;21.80;41.80
15983;DHT22;14442;50.196;8.096;2022-12-05T05:00:23;21.80;41.70
15983;DHT22;14442;50.196;8.096;2022-12-05T05:02:54;21.80;41.80
15983;DHT22;14442;50.196;8.096;2022-12-05T05:05:23;21.70;41.70
15983;DHT22;14442;50.196;8.096;2022-12-05T05:07:52;21.70;41.70
15983;DHT22;14442;50.196;8.096;2022-12-05T05:10:24;21.70;41.80
15983;DHT22;14442;50.196;8.096;2022-12-05T05:12:53;21.70;41.80
15983;DHT22;14442;50.196;8.096;2022-12-05T05:15:19;21.70;41.80
15983;DHT22;14442;50.196;8.096;2022-12-05T05:17:46;21.60;41.70
15983;DHT22;14442;50.196;8.096;2022-12-05T05:20:14;21.60;41.70
15983;DHT22;14442;50.196;8.096;2022-12-05T05:22:50;21.60;41.70
15983;DHT22;14442;50.196;8.096;2022-12-05T05:25:17;21.60;41.70
15983;DHT22;14442;50.196;8.096;2022-12-05T05:27:47;21.60;41.80
15983;DHT22;14442;50.196;8.096;2022-12-05T05:30:15;21.60;41.80
15983;DHT22;14442;50.196;8.096;2022-12-05T05:32:42;21.60;41.90
15983;DHT22;14442;50.196;8.096;2022-12-05T05:35:09;21.60;41.90
15983;DHT22;14442;50.196;8.096;2022-12-05T05:37:37;21.60;41.90
15983;DHT22;14442;50.196;8.096;2022-12-05T05:40:05;21.50;41.80
15983;DHT22;14442;50.196;8.096;2022-12-05T05:42:32;21.50;41.80
15983;DHT22;14442;50.196;8.096;2022-12-05T05:44:58;21.50;41.80
15983;DHT22;14442;50.196;8.096;2022-12-05T05:47:25;21.50;41.90
15983;DHT22;14442;50.196;8.096;2022-12-05T05:49:52;21.50;41.90
15983;DHT22;14442;50.196;8.096;2022-12-05T05:52:19;21.50;41.90
15983;DHT22;14442;50.196;8.096;2022-12-05T05:54:47;21.40;41.90
15983;DHT22;14442;50.196;8.096;2022-12-05T05:57:14;21.40;41.80
15983;DHT22;14442;50.196;8.096;2022-12-05T05:59:40;21.40;41.90
15983;DHT22;14442;50.196;8.096;2022-12-05T06:02:07;21.40;42.00
15983;DHT22;14442;50.196;8.096;2022-12-05T06:04:34;21.40;42.00
15983;DHT22;14442;50.196;8.096;2022-12-05T06:07:00;21.40;41.90
15983;DHT22;14442;50.196;8.096;2022-12-05T06:09:27;21.40;42.00
15983;DHT22;14442;50.196;8.096;2022-12-05T06:11:55;21.30;41.90
15983;DHT22;14442;50.196;8.096;2022-12-05T06:14:22;21.30;42.00
15983;DHT22;14442;50.196;8.096;2022-12-05T06:16:48;21.30;42.10
15983;DHT22;14442;50.196;8.096;2022-12-05T06:19:15;21.30;41.90
15983;DHT22;14442;50.196;8.096;2022-12-05T06:21:42;21.30;42.10
15983;DHT22;14442;50.196;8.096;2022-12-05T06:24:08;21.30;42.20
15983;DHT22;14442;50.196;8.096;2022-12-05T06:26:35;21.30;42.10
15983;DHT22;14442;50.196;8.096;2022-12-05T06:29:03;21.20;42.10
15983;DHT22;14442;50.196;8.096;2022-12-05T06:31:30;21.20;42.10
15983;DHT22;14442;50.196;8.096;2022-12-05T06:33:59;21.20;42.10
15983;DHT22;14442;50.196;8.096;2022-12-05T06:36:26;21.20;42.10
15983;DHT22;14442;50.196;8.096;2022-12-05T06:38:54;21.20;42.70
15983;DHT22;14442;50.196;8.096;2022-12-05T06:41:21;21.20;42.10
15983;DHT22;14442;50.196;8.096;2022-12-05T06:43:51;21.10;42.00
15983;DHT22;14442;50.196;8.096;2022-12-05T06:46:20;21.10;42.00
15983;DHT22;14442;50.196;8.096;2022-12-05T06:48:47;21.10;42.10
15983;DHT22;14442;50.196;8.096;2022-12-05T06:51:15;21.10;42.10
15983;DHT22;14442;50.196;8.096;2022-12-05T06:53:42;21.10;42.00
15983;DHT22;14442;50.196;8.096;2022-12-05T06:56:11;21.10;42.10
15983;DHT22;14442;50.196;8.096;2022-12-05T06:58:38;21.10;42.10
15983;DHT22;14442;50.196;8.096;2022-12-05T07:01:05;21.20;42.20
15983;DHT22;14442;50.196;8.096;2022-12-05T07:03:53;21.10;42.10
15983;DHT22;14442;50.196;8.096;2022-12-05T07:06:20;21.10;42.10
15983;DHT22;14442;50.196;8.096;2022-12-05T07:08:47;21.10;42.00
15983;DHT22;14442;50.196;8.096;2022-12-05T07:11:13;21.10;42.00
15983;DHT22;14442;50.196;8.096;2022-12-05T07:13:40;21.10;42.00
15983;DHT22;14442;50.196;8.096;2022-12-05T07:16:07;21.10;42.00
15983;DHT22;14442;50.196;8.096;2022-12-05T07:18:34;21.20;42.00
15983;DHT22;14442;50.196;8.096;2022-12-05T07:21:04;21.10;41.90
15983;DHT22;14442;50.196;8.096;2022-12-05T07:23:31;21.10;41.90
15983;DHT22;14442;50.196;8.096;2022-12-05T07:25:58;21.20;42.00
15983;DHT22;14442;50.196;8.096;2022-12-05T07:28:25;21.20;41.90
15983;DHT22;14442;50.196;8.096;2022-12-05T07:30:58;21.20;41.80
15983;DHT22;14442;50.196;8.096;2022-12-05T07:33:26;21.20;41.90
15983;DHT22;14442;50.196;8.096;2022-12-05T07:35:53;21.20;41.80
15983;DHT22;14442;50.196;8.096;2022-12-05T07:38:25;21.20;41.70
15983;DHT22;14442;50.196;8.096;2022-12-05T07:40:52;21.30;41.80
15983;DHT22;14442;50.196;8.096;2022-12-05T07:43:18;21.30;41.70
15983;DHT22;14442;50.196;8.096;2022-12-05T07:45:45;21.30;41.70
15983;DHT22;14442;50.196;8.096;2022-12-05T07:48:12;21.30;41.70
15983;DHT22;14442;50.196;8.096;2022-12-05T07:50:38;21.30;41.60
15983;DHT22;14442;50.196;8.096;2022-12-05T07:53:05;21.30;41.50
15983;DHT22;14442;50.196;8.096;2022-12-05T07:55:33;21.40;41.70
15983;DHT22;14442;50.196;8.096;2022-12-05T07:58:00;21.30;41.50
15983;DHT22;14442;50.196;8.096;2022-12-05T08:00:26;21.40;41.60
15983;DHT22;14442;50.196;8.096;2022-12-05T08:02:53;21.40;41.60
15983;DHT22;14442;50.196;8.096;2022-12-05T08:05:20;21.40;41.50
15983;DHT22;14442;50.196;8.096;2022-12-05T08:07:46;21.40;41.50
15983;DHT22;14442;50.196;8.096;2022-12-05T08:10:13;21.50;41.50
15983;DHT22;14442;50.196;8.096;2022-12-05T08:12:41;21.50;41.50
15983;DHT22;14442;50.196;8.096;2022-12-05T08:15:09;21.50;41.50
15983;DHT22;14442;50.196;8.096;2022-12-05T08:17:35;21.50;41.40
15983;DHT22;14442;50.196;8.096;2022-12-05T08:20:02;21.50;41.40
15983;DHT22;14442;50.196;8.096;2022-12-05T08:22:29;21.50;41.40
15983;DHT22;14442;50.196;8.096;2022-12-05T08:24:56;21.60;41.60
15983;DHT22;14442;50.196;8.096;2022-12-05T08:27:23;21.50;41.50
15983;DHT22;14442;50.196;8.096;2022-12-05T08:29:52;21.60;41.60
15983;DHT22;14442;50.196;8.096;2022-12-05T08:32:19;21.60;41.60
15983;DHT22;14442;50.196;8.096;2022-12-05T08:34:46;21.60;41.60
15983;DHT22;14442;50.196;8.096;2022-12-05T08:37:12;21.60;41.70
15983;DHT22;14442;50.196;8.096;2022-12-05T08:39:39;21.60;41.60
15983;DHT22;14442;50.196;8.096;2022-12-05T08:42:06;21.60;41.60
15983;DHT22;14442;50.196;8.096;2022-12-05T08:44:32;21.60;41.60
15983;DHT22;14442;50.196;8.096;2022-12-05T08:47:00;21.60;41.50
15983;DHT22;14442;50.196;8.096;2022-12-05T08:49:27;21.60;41.60
15983;DHT22;14442;50.196;8.096;2022-12-05T08:51:54;21.60;41.50
15983;DHT22;14442;50.196;8.096;2022-12-05T08:54:21;21.60;41.50
15983;DHT22;14442;50.196;8.096;2022-12-05T08:56:49;21.70;41.60
15983;DHT22;14442;50.196;8.096;2022-12-05T08:59:16;21.60;41.60
15983;DHT22;14442;50.196;8.096;2022-12-05T09:01:43;21.70;41.70
15983;DHT22;14442;50.196;8.096;2022-12-05T09:04:11;21.70;41.50
15983;DHT22;14442;50.196;8.096;2022-12-05T09:06:38;21.70;41.50
15983;DHT22;14442;50.196;8.096;2022-12-05T09:09:08;21.80;41.50
15983;DHT22;14442;50.196;8.096;2022-12-05T09:11:38;21.80;41.50
15983;DHT22;14442;50.196;8.096;2022-12-05T09:14:08;21.80;41.50
15983;DHT22;14442;50.196;8.096;2022-12-05T09:16:36;21.90;41.80
15983;DHT22;14442;50.196;8.096;2022-12-05T09:19:04;21.90;41.80
15983;DHT22;14442;50.196;8.096;2022-12-05T09:21:32;21.90;42.00
15983;DHT22;14442;50.196;8.096;2022-12-05T09:23:59;21.90;42.60
15983;DHT22;14442;50.196;8.096;2022-12-05T09:26:27;21.90;43.10
15983;DHT22;14442;50.196;8.096;2022-12-05T09:28:54;21.90;43.20
15983;DHT22;14442;50.196;8.096;2022-12-05T09:31:22;21.90;43.30
15983;DHT22;14442;50.196;8.096;2022-12-05T09:33:51;21.90;43.20
15983;DHT22;14442;50.196;8.096;2022-12-05T09:36:19;21.90;43.20
15983;DHT22;14442;50.196;8.096;2022-12-05T09:38:49;21.90;43.50
15983;DHT22;14442;50.196;8.096;2022-12-05T09:41:26;21.90;43.80
15983;DHT22;14442;50.196;8.096;2022-12-05T09:44:14;21.90;43.40
15983;DHT22;14442;50.196;8.096;2022-12-05T09:46:48;22.00;43.20
15983;DHT22;14442;50.196;8.096;2022-12-05T09:49:16;22.00;43.00
15983;DHT22;14442;50.196;8.096;2022-12-05T09:51:44;22.00;43.00
15983;DHT22;14442;50.196;8.096;2022-12-05T09:54:13;22.00;42.80
15983;DHT22;14442;50.196;8.096;2022-12-05T09:56:43;22.10;42.90
15983;DHT22;14442;50.196;8.096;2022-12-05T09:59:12;22.10;42.80
15983;DHT22;14442;50.196;8.096;2022-12-05T10:01:42;22.10;42.70
15983;DHT22;14442;50.196;8.096;2022-12-05T10:04:19;22.10;42.60
15983;DHT22;14442;50.196;8.096;2022-12-05T10:06:54;22.20;42.60
15983;DHT22;14442;50.196;8.096;2022-12-05T10:09:42;22.20;42.50
15983;DHT22;14442;50.196;8.096;2022-12-05T10:12:19;22.30;42.60
15983;DHT22;14442;50.196;8.096;2022-12-05T10:14:56;22.30;42.40
15983;DHT22;14442;50.196;8.096;2022-12-05T10:17:29;22.40;42.50
15983;DHT22;14442;50.196;8.096;2022-12-05T10:19:58;22.30;42.40
15983;DHT22;14442;50.196;8.096;2022-12-05T10:22:29;22.40;42.60
15983;DHT22;14442;50.196;8.096;2022-12-05T10:25:04;22.40;42.60
15983;DHT22;14442;50.196;8.096;2022-12-05T10:27:34;22.40;42.60
15983;DHT22;14442;50.196;8.096;2022-12-05T10:30:03;22.40;42.50
15983;DHT22;14442;50.196;8.096;2022-12-05T10:32:34;22.40;42.50
15983;DHT22;14442;50.196;8.096;2022-12-05T10:35:14;22.50;42.50
15983;DHT22;14442;50.196;8.096;2022-12-05T10:37:43;22.50;42.50
15983;DHT22;14442;50.196;8.096;2022-12-05T10:40:13;22.50;42.50
15983;DHT22;14442;50.196;8.096;2022-12-05T10:42:40;22.50;42.50
15983;DHT22;14442;50.196;8.096;2022-12-05T10:45:14;22.50;42.40
15983;DHT22;14442;50.196;8.096;2022-12-05T10:47:41;22.50;42.40
15983;DHT22;14442;50.196;8.096;2022-12-05T10:50:23;22.50;42.40
15983;DHT22;14442;50.196;8.096;2022-12-05T10:52:51;22.60;42.40
15983;DHT22;14442;50.196;8.096;2022-12-05T10:55:20;22.60;42.40
15983;DHT22;14442;50.196;8.096;2022-12-05T10:57:50;22.60;42.40
15983;DHT22;14442;50.196;8.096;2022-12-05T11:00:20;22.60;42.40
15983;DHT22;14442;50.196;8.096;2022-12-05T11:02:48;22.60;42.40
15983;DHT22;14442;50.196;8.096;2022-12-05T11:05:26;22.60;42.50
15983;DHT22;14442;50.196;8.096;2022-12-05T11:07:53;22.60;42.50
15983;DHT22;14442;50.196;8.096;2022-12-05T11:10:25;22.60;42.50
15983;DHT22;14442;50.196;8.096;2022-12-05T11:12:54;22.60;42.60
15983;DHT22;14442;50.196;8.096;2022-12-05T11:15:22;22.60;42.60
15983;DHT22;14442;50.196;8.096;2022-12-05T11:17:51;22.70;42.70
15983;DHT22;14442;50.196;8.096;2022-12-05T11:20:38;22.60;42.70
15983;DHT22;14442;50.196;8.096;2022-12-05T11:23:19;22.60;42.80
15983;DHT22;14442;50.196;8.096;2022-12-05T11:25:50;22.80;42.80
15983;DHT22;14442;50.196;8.096;2022-12-05T11:28:38;22.80;43.80
15983;DHT22;14442;50.196;8.096;2022-12-05T11:31:17;22.80;45.20
15983;DHT22;14442;50.196;8.096;2022-12-05T11:34:02;22.80;45.40
15983;DHT22;14442;50.196;8.096;2022-12-05T11:36:36;22.80;45.60
15983;DHT22;14442;50.196;8.096;2022-12-05T11:39:05;22.80;46.90
15983;DHT22;14442;50.196;8.096;2022-12-05T11:41:52;22.70;45.30
15983;DHT22;14442;50.196;8.096;2022-12-05T11:44:37;22.80;46.90
15983;DHT22;14442;50.196;8.096;2022-12-05T11:47:16;22.70;47.30
15983;DHT22;14442;50.196;8.096;2022-12-05T11:50:01;22.80;46.90
15983;DHT22;14442;50.196;8.096;2022-12-05T11:52:36;22.80;46.40
15983;DHT22;14442;50.196;8.096;2022-12-05T11:55:13;22.80;45.90
15983;DHT22;14442;50.196;8.096;2022-12-05T11:58:02;22.80;47.40
15983;DHT22;14442;50.196;8.096;2022-12-05T12:00:36;22.90;47.80
15983;DHT22;14442;50.196;8.096;2022-12-05T12:03:24;22.90;47.90
15983;DHT22;14442;50.196;8.096;2022-12-05T12:06:00;22.90;46.00
15983;DHT22;14442;50.196;8.096;2022-12-05T12:08:34;22.90;45.90
15983;DHT22;14442;50.196;8.096;2022-12-05T12:11:10;22.90;45.00
15983;DHT22;14442;50.196;8.096;2022-12-05T12:13:48;22.90;44.60
15983;DHT22;14442;50.196;8.096;2022-12-05T12:16:20;23.10;44.00
15983;DHT22;14442;50.196;8.096;2022-12-05T12:19:02;23.10;43.70
15983;DHT22;14442;50.196;8.096;2022-12-05T12:21:44;23.10;44.00
15983;DHT22;14442;50.196;8.096;2022-12-05T12:24:23;23.00;44.50
15983;DHT22;14442;50.196;8.096;2022-12-05T12:27:02;23.00;45.20
15983;DHT22;14442;50.196;8.096;2022-12-05T12:29:43;23.00;45.00
15983;DHT22;14442;50.196;8.096;2022-12-05T12:32:22;23.00;44.90
15983;DHT22;14442;50.196;8.096;2022-12-05T12:35:02;23.00;44.50
15983;DHT22;14442;50.196;8.096;2022-12-05T12:37:38;23.00;45.00
15983;DHT22;14442;50.196;8.096;2022-12-05T12:40:13;23.00;45.00
15983;DHT22;14442;50.196;8.096;2022-12-05T12:42:52;23.00;44.70
15983;DHT22;14442;50.196;8.096;2022-12-05T12:45:46;23.00;44.90
15983;DHT22;14442;50.196;8.096;2022-12-05T12:48:29;23.00;44.80
15983;DHT22;14442;50.196;8.096;2022-12-05T12:51:00;23.00;44.80
15983;DHT22;14442;50.196;8.096;2022-12-05T12:56:30;23.00;44.80
15983;DHT22;14442;50.196;8.096;2022-12-05T12:59:12;23.00;44.90
15983;DHT22;14442;50.196;8.096;2022-12-05T13:01:45;23.00;44.70
15983;DHT22;14442;50.196;8.096;2022-12-05T13:04:15;23.00;44.70
15983;DHT22;14442;50.196;8.096;2022-12-05T13:06:46;23.00;44.60
15983;DHT22;14442;50.196;8.096;2022-12-05T13:09:17;23.00;44.60
15983;DHT22;14442;50.196;8.096;2022-12-05T13:11:48;23.00;44.50
15983;DHT22;14442;50.196;8.096;2022-12-05T13:14:18;23.00;44.40
15983;DHT22;14442;50.196;8.096;2022-12-05T13:16:52;23.00;44.50
15983;DHT22;14442;50.196;8.096;2022-12-05T13:19:25;23.00;44.30
15983;DHT22;14442;50.196;8.096;2022-12-05T13:21:54;23.00;44.80
15983;DHT22;14442;50.196;8.096;2022-12-05T13:24:25;23.00;44.30
15983;DHT22;14442;50.196;8.096;2022-12-05T13:26:52;23.00;44.20
15983;DHT22;14442;50.196;8.096;2022-12-05T13:29:28;23.00;44.40
15983;DHT22;14442;50.196;8.096;2022-12-05T13:31:59;22.90;44.30
15983;DHT22;14442;50.196;8.096;2022-12-05T13:34:46;23.00;44.40
15983;DHT22;14442;50.196;8.096;2022-12-05T13:37:20;22.90;44.40
15983;DHT22;14442;50.196;8.096;2022-12-05T13:40:17;23.00;44.50
15983;DHT22;14442;50.196;8.096;2022-12-05T13:43:02;22.90;44.50
15983;DHT22;14442;50.196;8.096;2022-12-05T13:45:30;22.90;44.30
15983;DHT22;14442;50.196;8.096;2022-12-05T13:48:10;22.90;44.20
15983;DHT22;14442;50.196;8.096;2022-12-05T13:50:43;22.90;44.20
15983;DHT22;14442;50.196;8.096;2022-12-05T13:53:24;22.90;44.20
15983;DHT22;14442;50.196;8.096;2022-12-05T13:56:01;22.90;44.10
15983;DHT22;14442;50.196;8.096;2022-12-05T13:58:42;22.90;44.20
15983;DHT22;14442;50.196;8.096;2022-12-05T14:01:44;22.90;44.20
15983;DHT22;14442;50.196;8.096;2022-12-05T14:07:07;22.90;44.00
15983;DHT22;14442;50.196;8.096;2022-12-05T14:09:48;22.90;43.80
15983;DHT22;14442;50.196;8.096;2022-12-05T14:12:29;22.90;43.70
15983;DHT22;14442;50.196;8.096;2022-12-05T14:15:00;22.80;43.40
15983;DHT22;14442;50.196;8.096;2022-12-05T14:17:30;22.80;43.30
15983;DHT22;14442;50.196;8.096;2022-12-05T14:20:16;22.90;43.40
15983;DHT22;14442;50.196;8.096;2022-12-05T14:23:04;22.80;43.20
15983;DHT22;14442;50.196;8.096;2022-12-05T14:25:41;22.90;43.20
15983;DHT22;14442;50.196;8.096;2022-12-05T14:28:19;22.80;43.10
15983;DHT22;14442;50.196;8.096;2022-12-05T14:30:56;22.80;43.20
15983;DHT22;14442;50.196;8.096;2022-12-05T14:33:28;22.80;43.10
15983;DHT22;14442;50.196;8.096;2022-12-05T14:36:04;22.80;43.10
15983;DHT22;14442;50.196;8.096;2022-12-05T14:38:33;22.80;43.00
15983;DHT22;14442;50.196;8.096;2022-12-05T14:41:11;22.80;43.00
15983;DHT22;14442;50.196;8.096;2022-12-05T14:43:40;22.70;42.90
15983;DHT22;14442;50.196;8.096;2022-12-05T14:46:15;22.70;43.00
15983;DHT22;14442;50.196;8.096;2022-12-05T14:48:42;22.70;43.00
15983;DHT22;14442;50.196;8.096;2022-12-05T14:54:12;22.70;43.30
15983;DHT22;14442;50.196;8.096;2022-12-05T14:56:41;22.70;43.40
15983;DHT22;14442;50.196;8.096;2022-12-05T14:59:20;22.60;43.50
15983;DHT22;14442;50.196;8.096;2022-12-05T15:01:51;22.60;43.60
15983;DHT22;14442;50.196;8.096;2022-12-05T15:04:22;22.60;43.60
15983;DHT22;14442;50.196;8.096;2022-12-05T15:06:52;22.60;43.60
15983;DHT22;14442;50.196;8.096;2022-12-05T15:09:52;22.60;43.60
15983;DHT22;14442;50.196;8.096;2022-12-05T15:12:24;22.60;43.70
15983;DHT22;14442;50.196;8.096;2022-12-05T15:14:59;22.50;43.60
15983;DHT22;14442;50.196;8.096;2022-12-05T15:17:30;22.50;43.40
15983;DHT22;14442;50.196;8.096;2022-12-05T15:20:04;22.40;43.30
15983;DHT22;14442;50.196;8.096;2022-12-05T15:22:33;22.40;43.10
15983;DHT22;14442;50.196;8.096;2022-12-05T15:25:21;22.50;43.20
15983;DHT22;14442;50.196;8.096;2022-12-05T15:27:53;22.50;44.70
15983;DHT22;14442;50.196;8.096;2022-12-05T15:30:20;22.60;46.40
15983;DHT22;14442;50.196;8.096;2022-12-05T15:32:46;22.60;46.90
15983;DHT22;14442;50.196;8.096;2022-12-05T15:35:14;22.60;46.30
15983;DHT22;14442;50.196;8.096;2022-12-05T15:37:46;22.60;46.50
15983;DHT22;14442;50.196;8.096;2022-12-05T15:40:17;22.70;46.10
15983;DHT22;14442;50.196;8.096;2022-12-05T15:42:47;22.70;46.30
15983;DHT22;14442;50.196;8.096;2022-12-05T15:45:22;22.70;46.30
15983;DHT22;14442;50.196;8.096;2022-12-05T15:47:50;22.70;45.20
15983;DHT22;14442;50.196;8.096;2022-12-05T15:50:23;22.70;45.60
15983;DHT22;14442;50.196;8.096;2022-12-05T15:52:54;22.70;45.80
15983;DHT22;14442;50.196;8.096;2022-12-05T15:55:28;22.80;45.60
15983;DHT22;14442;50.196;8.096;2022-12-05T15:58:01;22.80;46.40
15983;DHT22;14442;50.196;8.096;2022-12-05T16:00:30;22.80;46.10
15983;DHT22;14442;50.196;8.096;2022-12-05T16:03:03;22.80;46.00
15983;DHT22;14442;50.196;8.096;2022-12-05T16:05:34;22.80;46.00
15983;DHT22;14442;50.196;8.096;2022-12-05T16:08:03;22.80;46.00
15983;DHT22;14442;50.196;8.096;2022-12-05T16:10:33;22.70;45.90
15983;DHT22;14442;50.196;8.096;2022-12-05T16:13:02;22.90;45.90